createdAt,value
2022-12-29T00:00:13.264Z,59.90
2022-12-29T00:02:41.874Z,66.90
2022-12-29T00:05:10.625Z,64.40
2022-12-29T00:07:39.386Z,59.80
2022-12-29T00:10:08.378Z,62.20
2022-12-29T00:12:54.972Z,67.10
2022-12-29T00:15:39.025Z,62.50
2022-12-29T00:18:09.001Z,66.70
2022-12-29T00:20:56.777Z,72.20
2022-12-29T00:23:43.410Z,72.60
2022-12-29T00:26:35.242Z,65.50
2022-12-29T00:29:22.023Z,64.10
2022-12-29T00:32:09.007Z,64.90
2022-12-29T00:34:55.872Z,66.00
2022-12-29T00:37:44.199Z,70.20
2022-12-29T00:40:30.884Z,69.50
2022-12-29T00:43:17.815Z,69.10
2022-12-29T00:45:46.690Z,73.20
2022-12-29T00:48:15.050Z,76.70
2022-12-29T00:50:43.456Z,79.40
2022-12-29T00:53:11.813Z,81.80
2022-12-29T00:55:40.293Z,81.40
2022-12-29T00:58:08.785Z,84.10
2022-12-29T01:00:37.265Z,89.60
2022-12-29T01:03:05.874Z,90.50
2022-12-29T01:05:37.724Z,92.80
2022-12-29T01:08:06.448Z,94.60
2022-12-29T01:10:35.698Z,97.30
2022-12-29T01:13:04.102Z,99.90
2022-12-29T01:15:32.557Z,99.90
2022-12-29T01:18:00.953Z,99.90
2022-12-29T01:20:30.444Z,99.90
2022-12-29T01:22:58.803Z,99.90
2022-12-29T01:25:27.183Z,99.90
2022-12-29T01:27:55.579Z,99.90
2022-12-29T01:30:23.963Z,99.90
2022-12-29T01:32:52.354Z,99.90
2022-12-29T01:35:20.849Z,99.90
2022-12-29T01:37:49.274Z,99.90
2022-12-29T01:40:17.937Z,99.90
2022-12-29T01:42:46.437Z,99.90
2022-12-29T01:45:16.632Z,99.90
2022-12-29T01:47:53.810Z,99.90
2022-12-29T01:50:24.910Z,99.90
2022-12-29T01:53:07.290Z,99.90
2022-12-29T01:55:59.409Z,99.90
2022-12-29T01:58:32.958Z,99.90
2022-12-29T02:01:01.681Z,99.90
2022-12-29T02:03:34.108Z,99.90
2022-12-29T02:06:38.852Z,99.90
2022-12-29T02:09:07.313Z,99.90
2022-12-29T02:11:38.531Z,99.90
2022-12-29T02:14:14.267Z,99.90
2022-12-29T02:17:15.296Z,99.90
2022-12-29T02:20:19.917Z,99.90
2022-12-29T02:23:14.389Z,99.90
2022-12-29T02:25:54.746Z,99.90
2022-12-29T02:28:26.164Z,99.90
2022-12-29T02:31:30.254Z,99.90
2022-12-29T02:34:18.730Z,99.90
2022-12-29T02:37:35.033Z,99.90
2022-12-29T02:40:16.794Z,99.90
2022-12-29T02:43:11.541Z,99.90
2022-12-29T02:46:05.192Z,99.90
2022-12-29T02:48:49.860Z,99.90
2022-12-29T02:51:27.506Z,99.90
2022-12-29T02:54:16.821Z,99.90
2022-12-29T02:56:45.478Z,99.90
2022-12-29T02:59:14.713Z,99.90
2022-12-29T03:02:19.984Z,99.90
2022-12-29T03:05:15.441Z,99.90
2022-12-29T03:08:02.337Z,99.90
2022-12-29T03:11:33.689Z,99.90
2022-12-29T03:14:46.560Z,99.90
2022-12-29T03:17:28.142Z,99.90
2022-12-29T03:20:05.969Z,99.90
2022-12-29T03:22:38.552Z,99.90
2022-12-29T03:25:17.376Z,99.90
2022-12-29T03:27:57.435Z,99.90
2022-12-29T03:30:28.284Z,99.90
2022-12-29T03:33:03.991Z,99.90
2022-12-29T03:35:36.329Z,99.90
2022-12-29T03:38:13.381Z,99.90
2022-12-29T03:40:52.087Z,99.90
2022-12-29T03:43:20.915Z,99.90
2022-12-29T03:45:49.487Z,99.90
2022-12-29T03:48:17.924Z,99.90
2022-12-29T03:50:46.680Z,99.90
2022-12-29T03:53:15.087Z,99.90
2022-12-29T03:55:43.583Z,99.90
2022-12-29T03:58:11.954Z,99.90
2022-12-29T04:00:40.344Z,99.90
2022-12-29T04:03:08.882Z,99.90
2022-12-29T04:05:37.399Z,99.90
2022-12-29T04:08:05.989Z,99.90
2022-12-29T04:10:34.431Z,99.90
2022-12-29T04:13:02.807Z,99.90
2022-12-29T04:15:31.244Z,99.90
2022-12-29T04:18:00.013Z,99.90
2022-12-29T04:20:46.808Z,99.90
2022-12-29T04:23:15.298Z,99.90
2022-12-29T04:25:46.891Z,99.90
2022-12-29T04:28:16.429Z,99.90
2022-12-29T04:30:48.096Z,99.90
2022-12-29T04:33:16.653Z,99.90
2022-12-29T04:35:48.018Z,99.90
2022-12-29T04:38:17.203Z,99.90
2022-12-29T04:40:47.138Z,99.90
2022-12-29T04:43:16.045Z,99.90
2022-12-29T04:45:49.841Z,99.90
2022-12-29T04:48:18.418Z,99.90
2022-12-29T04:50:49.163Z,99.90
2022-12-29T04:53:18.778Z,99.90
2022-12-29T04:55:50.432Z,99.90
2022-12-29T04:58:22.614Z,99.90
2022-12-29T05:00:53.234Z,99.90
2022-12-29T05:03:21.829Z,99.90
2022-12-29T05:05:50.271Z,99.90
2022-12-29T05:08:21.922Z,99.90
2022-12-29T05:10:54.941Z,99.90
2022-12-29T05:13:23.374Z,99.90
2022-12-29T05:15:55.914Z,99.90
2022-12-29T05:18:24.415Z,99.90
2022-12-29T05:20:52.797Z,99.90
2022-12-29T05:23:21.226Z,99.90
2022-12-29T05:25:49.693Z,99.90
2022-12-29T05:28:18.642Z,99.90
2022-12-29T05:30:50.021Z,99.90
2022-12-29T05:33:19.485Z,99.90
2022-12-29T05:35:47.956Z,99.90
2022-12-29T05:38:16.656Z,99.90
2022-12-29T05:40:47.177Z,99.90
2022-12-29T05:43:15.655Z,99.90
2022-12-29T05:45:44.065Z,99.90
2022-12-29T05:48:12.442Z,99.90
2022-12-29T05:50:40.793Z,99.90
2022-12-29T05:53:09.271Z,99.90
2022-12-29T05:55:39.187Z,99.90
2022-12-29T05:58:09.372Z,99.90
2022-12-29T06:00:37.795Z,99.90
2022-12-29T06:03:06.996Z,99.90
2022-12-29T06:05:35.599Z,99.90
2022-12-29T06:08:04.018Z,99.90
2022-12-29T06:10:32.516Z,99.90
2022-12-29T06:13:01.235Z,99.90
2022-12-29T06:15:29.720Z,99.90
2022-12-29T06:17:58.102Z,99.90
2022-12-29T06:20:26.852Z,99.90
2022-12-29T06:22:55.257Z,99.90
2022-12-29T06:25:23.656Z,99.90
2022-12-29T06:27:52.151Z,99.90
2022-12-29T06:30:20.523Z,99.90
2022-12-29T06:32:48.900Z,99.90
2022-12-29T06:35:17.580Z,99.90
2022-12-29T06:37:46.161Z,99.90
2022-12-29T06:40:14.573Z,99.90
2022-12-29T06:42:43.223Z,99.90
2022-12-29T06:45:12.208Z,99.90
2022-12-29T06:47:40.743Z,99.90
2022-12-29T06:50:09.529Z,99.90
2022-12-29T06:52:37.905Z,99.90
2022-12-29T06:55:06.720Z,99.90
2022-12-29T06:57:36.006Z,99.90
2022-12-29T07:00:06.684Z,99.90
2022-12-29T07:02:35.679Z,99.90
2022-12-29T07:05:04.174Z,99.90
2022-12-29T07:07:32.644Z,99.90
2022-12-29T07:10:01.054Z,99.90
2022-12-29T07:12:29.443Z,99.90
2022-12-29T07:14:57.851Z,99.90
2022-12-29T07:17:26.305Z,99.90
2022-12-29T07:19:54.694Z,99.90
2022-12-29T07:22:23.297Z,99.90
2022-12-29T07:24:51.684Z,99.90
2022-12-29T07:27:20.106Z,99.90
2022-12-29T07:29:48.643Z,99.90
2022-12-29T07:32:17.127Z,99.90
2022-12-29T07:34:47.077Z,99.90
2022-12-29T07:37:18.872Z,99.90
2022-12-29T07:39:47.393Z,99.90
2022-12-29T07:42:15.826Z,99.90
2022-12-29T07:44:44.416Z,99.90
2022-12-29T07:47:12.814Z,99.90
2022-12-29T07:49:41.197Z,99.90
2022-12-29T07:52:09.829Z,99.90
2022-12-29T07:54:38.217Z,99.90
2022-12-29T07:57:07.678Z,99.90
2022-12-29T07:59:36.206Z,99.90
2022-12-29T08:02:04.719Z,99.90
2022-12-29T08:04:33.279Z,99.90
2022-12-29T08:07:01.886Z,99.90
2022-12-29T08:09:30.298Z,99.90
2022-12-29T08:11:58.695Z,99.90
2022-12-29T08:14:27.140Z,99.90
2022-12-29T08:16:55.537Z,99.90
2022-12-29T08:19:23.966Z,99.90
2022-12-29T08:21:53.074Z,99.90
2022-12-29T08:24:21.547Z,99.90
2022-12-29T08:26:49.973Z,99.90
2022-12-29T08:29:18.719Z,99.90
2022-12-29T08:31:47.263Z,99.90
2022-12-29T08:34:16.037Z,99.90
2022-12-29T08:36:44.483Z,99.90
2022-12-29T08:39:12.868Z,99.90
2022-12-29T08:41:41.417Z,99.90
2022-12-29T08:44:10.173Z,99.90
2022-12-29T08:46:38.638Z,99.90
2022-12-29T08:49:07.239Z,99.90
2022-12-29T08:51:35.748Z,99.90
2022-12-29T08:54:04.161Z,99.90
2022-12-29T08:56:32.541Z,99.90
2022-12-29T08:59:00.976Z,99.90
2022-12-29T09:01:29.513Z,99.90
2022-12-29T09:04:15.672Z,99.90
2022-12-29T09:06:46.480Z,99.90
2022-12-29T09:09:15.198Z,99.90
2022-12-29T09:11:44.059Z,99.90
2022-12-29T09:14:12.573Z,99.90
2022-12-29T09:17:00.957Z,99.90
2022-12-29T09:19:29.369Z,99.90
2022-12-29T09:21:57.980Z,99.90
2022-12-29T09:24:26.347Z,99.90
2022-12-29T09:26:54.859Z,99.90
2022-12-29T09:29:23.656Z,99.90
2022-12-29T09:31:52.475Z,99.90
2022-12-29T09:34:20.953Z,99.90
2022-12-29T09:36:49.340Z,99.90
2022-12-29T09:39:17.733Z,99.90
2022-12-29T09:41:58.402Z,99.90
2022-12-29T09:44:43.527Z,99.30
2022-12-29T09:47:15.692Z,97.50
2022-12-29T09:49:51.324Z,96.80
2022-12-29T09:52:45.404Z,94.50
2022-12-29T09:55:28.048Z,93.30
2022-12-29T09:58:04.407Z,90.00
2022-12-29T10:00:55.123Z,88.10
2022-12-29T10:03:28.352Z,85.70
2022-12-29T10:06:26.102Z,85.60
2022-12-29T10:09:06.363Z,79.20
2022-12-29T10:12:11.894Z,80.00
2022-12-29T10:14:55.397Z,76.70
2022-12-29T10:17:36.080Z,77.80
2022-12-29T10:20:13.467Z,74.20
2022-12-29T10:22:49.903Z,69.20
2022-12-29T10:25:23.678Z,62.10
2022-12-29T10:27:58.906Z,59.70
2022-12-29T10:30:27.744Z,58.80
2022-12-29T10:33:03.372Z,52.20
2022-12-29T10:35:42.369Z,42.20
2022-12-29T10:38:43.098Z,41.20
2022-12-29T10:41:23.789Z,38.30
2022-12-29T10:43:56.233Z,30.20
2022-12-29T10:46:37.072Z,27.40
2022-12-29T10:49:07.411Z,23.00
2022-12-29T10:51:44.405Z,22.80
2022-12-29T10:54:25.600Z,21.30
2022-12-29T10:57:08.055Z,22.80
2022-12-29T10:59:38.902Z,22.10
2022-12-29T11:02:13.474Z,19.20
2022-12-29T11:05:17.788Z,18.50
2022-12-29T11:07:48.811Z,17.80
2022-12-29T11:10:38.899Z,17.90
2022-12-29T11:13:16.576Z,13.40
2022-12-29T11:15:50.738Z,11.80
2022-12-29T11:18:25.310Z,14.60
2022-12-29T11:21:02.534Z,15.80
2022-12-29T11:23:42.127Z,22.70
2022-12-29T11:26:21.509Z,29.90
2022-12-29T11:29:10.023Z,39.20
2022-12-29T11:32:00.720Z,45.20
2022-12-29T11:34:34.971Z,48.30
2022-12-29T11:37:07.979Z,41.40
2022-12-29T11:39:53.934Z,47.30
2022-12-29T11:42:32.855Z,54.90
2022-12-29T11:45:26.297Z,49.20
2022-12-29T11:47:58.563Z,57.90
2022-12-29T11:50:31.703Z,65.20
2022-12-29T11:53:26.552Z,67.70
2022-12-29T11:56:11.516Z,69.10
2022-12-29T11:58:40.771Z,67.80
2022-12-29T12:01:25.934Z,59.20
2022-12-29T12:04:03.912Z,60.80
2022-12-29T12:06:37.534Z,65.30
2022-12-29T12:09:12.472Z,69.80
2022-12-29T12:11:45.199Z,75.00
2022-12-29T12:14:29.423Z,81.00
2022-12-29T12:17:13.341Z,78.50
2022-12-29T12:20:20.069Z,77.00
2022-12-29T12:22:56.937Z,78.20
2022-12-29T12:25:47.567Z,84.80
2022-12-29T12:28:21.254Z,90.50
2022-12-29T12:30:54.348Z,94.00
2022-12-29T12:33:38.939Z,98.40
2022-12-29T12:36:49.559Z,99.90
2022-12-29T12:39:57.754Z,99.90
2022-12-29T12:42:31.697Z,99.90
2022-12-29T12:45:00.075Z,99.90
2022-12-29T12:47:52.506Z,99.90
2022-12-29T12:50:38.265Z,99.90
2022-12-29T12:53:35.620Z,99.90
2022-12-29T12:56:43.892Z,99.90
2022-12-29T12:59:42.897Z,99.90
2022-12-29T13:02:42.847Z,99.90
2022-12-29T13:05:27.277Z,99.90
2022-12-29T13:08:17.609Z,99.90
2022-12-29T13:11:21.401Z,99.90
2022-12-29T13:13:52.905Z,99.90
2022-12-29T13:16:43.756Z,99.90
2022-12-29T13:19:14.953Z,99.90
2022-12-29T13:22:01.796Z,99.90
2022-12-29T13:24:55.471Z,99.90
2022-12-29T13:27:23.891Z,99.90
2022-12-29T13:30:01.219Z,99.90
2022-12-29T13:32:52.002Z,99.90
2022-12-29T13:35:29.349Z,99.90
2022-12-29T13:38:07.871Z,99.90
2022-12-29T13:40:42.002Z,99.90
2022-12-29T13:43:11.377Z,99.90
2022-12-29T13:45:41.462Z,99.90
2022-12-29T13:48:23.729Z,99.90
2022-12-29T13:51:00.463Z,99.90
2022-12-29T13:53:42.947Z,99.90
2022-12-29T13:56:28.746Z,99.90
2022-12-29T13:59:23.144Z,99.90
2022-12-29T14:02:00.483Z,99.90
2022-12-29T14:04:34.528Z,99.90
2022-12-29T14:07:14.693Z,99.90
2022-12-29T14:09:46.276Z,99.90
2022-12-29T14:12:42.572Z,99.90
2022-12-29T14:15:14.437Z,99.90
2022-12-29T14:17:43.344Z,99.90
2022-12-29T14:20:25.399Z,99.90
2022-12-29T14:23:11.992Z,99.90
2022-12-29T14:26:08.189Z,99.90
2022-12-29T14:28:40.833Z,99.90
2022-12-29T14:31:21.388Z,99.90
2022-12-29T14:34:08.361Z,99.90
2022-12-29T14:36:42.403Z,99.90
2022-12-29T14:39:49.703Z,99.90
2022-12-29T14:42:24.419Z,99.90
2022-12-29T14:45:05.141Z,99.90
2022-12-29T14:47:35.039Z,99.90
2022-12-29T14:50:19.808Z,99.90
2022-12-29T14:52:58.448Z,99.90
2022-12-29T14:55:41.661Z,99.90
2022-12-29T14:58:28.218Z,99.90
2022-12-29T15:00:57.016Z,99.90
2022-12-29T15:03:27.136Z,99.90
2022-12-29T15:06:03.568Z,99.90
2022-12-29T15:08:56.426Z,99.90
2022-12-29T15:11:31.566Z,99.90
2022-12-29T15:14:00.133Z,99.90
2022-12-29T15:16:38.550Z,99.90
2022-12-29T15:19:22.641Z,99.90
2022-12-29T15:21:51.279Z,99.90
2022-12-29T15:24:19.929Z,99.90
2022-12-29T15:26:51.845Z,99.90
2022-12-29T15:29:38.826Z,99.90
2022-12-29T15:32:23.754Z,99.90
2022-12-29T15:34:57.778Z,99.90
2022-12-29T15:37:27.424Z,99.90
2022-12-29T15:39:57.932Z,99.90
2022-12-29T15:42:38.597Z,99.90
2022-12-29T15:45:15.386Z,99.90
2022-12-29T15:47:46.305Z,99.90
2022-12-29T15:50:36.377Z,99.90
2022-12-29T15:53:11.922Z,99.90
2022-12-29T15:55:43.653Z,99.90
2022-12-29T15:58:27.465Z,99.90
2022-12-29T16:01:02.035Z,99.90
2022-12-29T16:03:35.692Z,99.90
2022-12-29T16:06:13.050Z,99.90
2022-12-29T16:08:42.550Z,99.90
2022-12-29T16:11:26.568Z,99.90
2022-12-29T16:13:56.314Z,99.90
2022-12-29T16:16:33.870Z,99.90
2022-12-29T16:19:13.667Z,99.90
2022-12-29T16:21:43.785Z,99.90
2022-12-29T16:24:18.264Z,99.90
2022-12-29T16:27:15.469Z,99.90
2022-12-29T16:29:43.984Z,99.90
2022-12-29T16:32:32.138Z,99.90
2022-12-29T16:35:22.735Z,99.90
2022-12-29T16:38:10.299Z,99.90
2022-12-29T16:40:57.529Z,99.90
2022-12-29T16:43:43.462Z,99.90
2022-12-29T16:46:30.686Z,99.90
2022-12-29T16:48:59.721Z,99.90
2022-12-29T16:51:37.343Z,99.90
2022-12-29T16:54:06.643Z,99.90
2022-12-29T16:56:38.345Z,99.90
2022-12-29T16:59:25.867Z,99.90
2022-12-29T17:01:54.524Z,99.90
2022-12-29T17:04:23.022Z,99.90
2022-12-29T17:06:51.421Z,99.90
2022-12-29T17:09:23.858Z,99.90
2022-12-29T17:12:08.804Z,99.90
2022-12-29T17:14:53.897Z,99.90
2022-12-29T17:17:31.408Z,99.90
2022-12-29T17:20:16.231Z,99.90
2022-12-29T17:22:44.737Z,99.90
2022-12-29T17:25:19.401Z,99.90
2022-12-29T17:27:53.287Z,99.90
2022-12-29T17:30:33.204Z,99.90
2022-12-29T17:33:11.695Z,99.90
2022-12-29T17:35:40.475Z,99.90
2022-12-29T17:38:36.233Z,99.90
2022-12-29T17:41:05.030Z,99.90
2022-12-29T17:43:37.099Z,99.90
2022-12-29T17:46:08.886Z,99.90
2022-12-29T17:48:37.860Z,99.90
2022-12-29T17:51:06.399Z,99.90
2022-12-29T17:53:34.901Z,99.90
2022-12-29T17:56:03.350Z,99.90
2022-12-29T17:58:33.255Z,99.90
2022-12-29T18:01:03.735Z,99.90
2022-12-29T18:03:38.499Z,99.90
2022-12-29T18:06:09.201Z,99.90
2022-12-29T18:08:39.452Z,99.90
2022-12-29T18:11:25.772Z,99.90
2022-12-29T18:13:55.209Z,99.90
2022-12-29T18:16:24.801Z,99.90
2022-12-29T18:18:53.472Z,99.90
2022-12-29T18:21:24.337Z,99.90
2022-12-29T18:23:53.614Z,99.90
2022-12-29T18:26:28.886Z,99.90
2022-12-29T18:28:59.120Z,99.90
2022-12-29T18:31:33.731Z,99.90
2022-12-29T18:34:08.044Z,99.90
2022-12-29T18:36:36.440Z,99.90
2022-12-29T18:39:04.884Z,99.90
2022-12-29T18:41:33.299Z,99.90
2022-12-29T18:44:01.811Z,99.90
2022-12-29T18:46:30.937Z,99.90
2022-12-29T18:48:59.357Z,99.90
2022-12-29T18:51:27.791Z,99.90
2022-12-29T18:53:56.479Z,99.90
2022-12-29T18:56:25.424Z,99.90
2022-12-29T18:58:54.346Z,99.90
2022-12-29T19:01:26.413Z,99.90
2022-12-29T19:03:55.417Z,99.90
2022-12-29T19:06:24.068Z,99.90
2022-12-29T19:08:52.540Z,99.90
2022-12-29T19:11:20.902Z,99.90
2022-12-29T19:13:49.305Z,99.90
2022-12-29T19:16:21.312Z,99.90
2022-12-29T19:19:07.708Z,99.90
2022-12-29T19:21:38.148Z,99.90
2022-12-29T19:24:06.941Z,99.90
2022-12-29T19:26:38.200Z,99.90
2022-12-29T19:29:09.005Z,99.90
2022-12-29T19:31:40.041Z,99.90
2022-12-29T19:34:08.670Z,99.90
2022-12-29T19:36:37.076Z,99.90
2022-12-29T19:39:05.625Z,99.90
2022-12-29T19:41:34.112Z,99.90
2022-12-29T19:44:02.552Z,99.90
2022-12-29T19:46:31.120Z,99.90
2022-12-29T19:49:00.342Z,99.90
2022-12-29T19:51:28.802Z,99.90
2022-12-29T19:53:59.348Z,99.90
2022-12-29T19:56:27.778Z,99.90
2022-12-29T19:58:58.335Z,99.90
2022-12-29T20:01:27.401Z,99.90
2022-12-29T20:03:55.899Z,99.90
2022-12-29T20:06:24.411Z,99.90
2022-12-29T20:08:52.845Z,99.90
2022-12-29T20:11:21.409Z,99.90
2022-12-29T20:13:49.861Z,99.90
2022-12-29T20:16:20.782Z,99.90
2022-12-29T20:18:50.028Z,99.90
2022-12-29T20:21:24.237Z,99.90
2022-12-29T20:23:54.007Z,99.90
2022-12-29T20:26:28.760Z,99.90
2022-12-29T20:29:00.952Z,99.90
2022-12-29T20:31:32.908Z,99.90
2022-12-29T20:34:01.809Z,99.90
2022-12-29T20:36:33.549Z,99.90
2022-12-29T20:39:05.597Z,99.90
2022-12-29T20:41:34.210Z,99.90
2022-12-29T20:44:02.723Z,99.90
2022-12-29T20:46:36.624Z,99.90
2022-12-29T20:49:08.797Z,99.90
2022-12-29T20:52:04.513Z,99.90
2022-12-29T20:54:25.868Z,99.90
2022-12-29T20:56:54.352Z,99.90
2022-12-29T20:59:27.671Z,99.90
2022-12-29T21:01:57.183Z,99.90
2022-12-29T21:04:26.037Z,99.90
2022-12-29T21:06:54.719Z,99.90
2022-12-29T21:09:23.751Z,99.90
2022-12-29T21:11:52.162Z,99.90
2022-12-29T21:14:20.824Z,99.90
2022-12-29T21:16:49.589Z,99.90
2022-12-29T21:19:18.020Z,99.90
2022-12-29T21:21:46.381Z,99.90
2022-12-29T21:24:14.792Z,99.90
2022-12-29T21:26:43.730Z,99.90
2022-12-29T21:29:12.110Z,99.90
2022-12-29T21:31:40.633Z,99.90
2022-12-29T21:34:10.440Z,99.90
2022-12-29T21:36:38.919Z,99.90
2022-12-29T21:39:07.642Z,99.90
2022-12-29T21:41:36.207Z,99.90
2022-12-29T21:44:22.865Z,99.90
2022-12-29T21:46:51.239Z,99.90
2022-12-29T21:49:19.673Z,99.90
2022-12-29T21:51:58.236Z,99.90
2022-12-29T21:54:47.224Z,99.90
2022-12-29T21:57:38.401Z,99.90
2022-12-29T22:00:27.161Z,99.90
2022-12-29T22:03:20.430Z,99.90
2022-12-29T22:06:11.146Z,99.90
2022-12-29T22:08:57.984Z,99.90
2022-12-29T22:11:45.018Z,99.90
2022-12-29T22:14:13.633Z,99.90
2022-12-29T22:16:42.076Z,99.90
2022-12-29T22:19:11.797Z,99.90
2022-12-29T22:21:40.296Z,99.90
2022-12-29T22:24:09.618Z,99.90
2022-12-29T22:26:38.023Z,99.90
2022-12-29T22:29:06.538Z,99.90
2022-12-29T22:31:35.058Z,99.90
2022-12-29T22:34:05.457Z,99.90
2022-12-29T22:36:34.583Z,99.90
2022-12-29T22:39:02.996Z,99.90
2022-12-29T22:41:31.457Z,99.90
2022-12-29T22:43:59.972Z,99.90
2022-12-29T22:46:28.376Z,99.90
2022-12-29T22:48:58.555Z,99.90
2022-12-29T22:51:27.204Z,99.90
2022-12-29T22:53:55.578Z,99.90
2022-12-29T22:56:23.965Z,99.90
2022-12-29T22:58:52.407Z,99.90
2022-12-29T23:01:24.411Z,99.90
2022-12-29T23:03:53.250Z,99.90
2022-12-29T23:06:21.761Z,99.90
2022-12-29T23:08:50.149Z,99.90
2022-12-29T23:11:18.677Z,99.90
2022-12-29T23:13:47.680Z,99.90
2022-12-29T23:16:17.141Z,99.90
2022-12-29T23:18:47.935Z,99.90
2022-12-29T23:21:18.203Z,99.90
2022-12-29T23:24:04.691Z,99.90
2022-12-29T23:26:39.131Z,99.90
2022-12-29T23:29:10.811Z,99.90
2022-12-29T23:31:39.986Z,99.90
2022-12-29T23:34:09.536Z,99.90
2022-12-29T23:36:38.468Z,99.90
2022-12-29T23:39:09.346Z,99.90
2022-12-29T23:41:38.198Z,99.90
2022-12-29T23:44:06.676Z,99.90
2022-12-29T23:46:36.301Z,99.90
2022-12-29T23:49:04.743Z,99.90
2022-12-29T23:51:33.154Z,99.90
2022-12-29T23:54:01.587Z,99.90
2022-12-29T23:56:30.037Z,99.90
2022-12-29T23:58:58.451Z,99.90
